Time;durP1;ratioP1;P1;durP2;ratioP2;P2;SDS_P1;SDS_P2;PMS_P1;PMS_P2;Temp;Humidity;BMP_temperature;BMP_pressure;BME280_temperature;BME280_humidity;BME280_pressure;Samples;Min_cycle;Max_cycle;Signal;HPM_P1;HPM_P2
2023/10/24 00:01:01;;;;;;;10.50;10.00;;;;;;;;;;5065760;28;20021;-62
2023/10/24 00:03:27;;;;;;;10.35;9.85;;;;;;;;;;5065711;28;20031;-62
2023/10/24 00:05:52;;;;;;;10.88;10.38;;;;;;;;;;5071146;28;20024;-62
2023/10/24 00:08:18;;;;;;;10.60;10.10;;;;;;;;;;5068434;28;20025;-62
2023/10/24 00:10:43;;;;;;;10.60;10.10;;;;;;;;;;5067169;28;20028;-62
2023/10/24 00:13:08;;;;;;;10.75;10.25;;;;;;;;;;5076396;28;20056;-62
2023/10/24 00:15:34;;;;;;;10.38;9.88;;;;;;;;;;5061696;28;20098;-62
2023/10/24 00:17:59;;;;;;;10.45;9.95;;;;;;;;;;5068812;28;20385;-63
2023/10/24 00:20:24;;;;;;;10.57;10.07;;;;;;;;;;5066794;28;20036;-61
2023/10/24 00:22:50;;;;;;;10.80;10.30;;;;;;;;;;5069819;28;20032;-62
2023/10/24 00:25:15;;;;;;;10.70;10.20;;;;;;;;;;5072220;28;20023;-63
2023/10/24 00:27:40;;;;;;;10.07;9.68;;;;;;;;;;5069620;28;20021;-62
2023/10/24 00:30:06;;;;;;;10.38;9.88;;;;;;;;;;5066389;28;20040;-62
2023/10/24 00:32:31;;;;;;;10.90;10.40;;;;;;;;;;5067795;28;20024;-62
2023/10/24 00:34:56;;;;;;;10.60;10.10;;;;;;;;;;5066538;28;20522;-63
2023/10/24 00:37:22;;;;;;;10.40;9.90;;;;;;;;;;5064401;28;20048;-62
2023/10/24 00:39:47;;;;;;;10.70;10.20;;;;;;;;;;5062725;28;20033;-62
2023/10/24 00:42:12;;;;;;;10.40;9.90;;;;;;;;;;5070445;28;20393;-61
2023/10/24 00:44:38;;;;;;;10.65;10.15;;;;;;;;;;5062209;28;20389;-63
2023/10/24 00:47:03;;;;;;;10.73;10.23;;;;;;;;;;5058186;28;20024;-63
2023/10/24 00:49:29;;;;;;;10.50;10.00;;;;;;;;;;5066459;28;20025;-61
2023/10/24 00:51:55;;;;;;;10.32;9.82;;;;;;;;;;5076203;28;20020;-63
2023/10/24 00:54:21;;;;;;;10.30;9.80;;;;;;;;;;5069485;28;20107;-62
2023/10/24 00:56:48;;;;;;;10.50;10.00;;;;;;;;;;5061135;28;20024;-62
2023/10/24 00:59:14;;;;;;;10.50;10.00;;;;;;;;;;5064227;28;20111;-62
2023/10/24 01:01:39;;;;;;;9.95;9.55;;;;;;;;;;5071597;28;20440;-62
2023/10/24 01:04:05;;;;;;;10.10;9.70;;;;;;;;;;5065632;28;20032;-62
2023/10/24 01:06:30;;;;;;;10.50;10.00;;;;;;;;;;5071010;28;20108;-62
2023/10/24 01:08:55;;;;;;;10.57;10.07;;;;;;;;;;5068064;28;20020;-62
2023/10/24 01:11:21;;;;;;;10.38;9.88;;;;;;;;;;5070342;28;20024;-62
2023/10/24 01:13:47;;;;;;;10.20;9.75;;;;;;;;;;5063128;28;20416;-62
2023/10/24 01:16:13;;;;;;;10.38;9.88;;;;;;;;;;5065301;28;20417;-62
2023/10/24 01:18:38;;;;;;;10.43;9.93;;;;;;;;;;5069240;28;20386;-62
2023/10/24 01:21:04;;;;;;;10.55;10.05;;;;;;;;;;5069135;28;20035;-62
2023/10/24 01:23:31;;;;;;;10.07;9.63;;;;;;;;;;5072670;28;20023;-62
2023/10/24 01:25:58;;;;;;;10.75;10.25;;;;;;;;;;5070001;28;20094;-61
2023/10/24 01:28:24;;;;;;;10.18;9.70;;;;;;;;;;5061158;28;20028;-61
2023/10/24 01:30:49;;;;;;;10.18;9.70;;;;;;;;;;5063167;28;20055;-61
2023/10/24 01:33:14;;;;;;;10.30;9.80;;;;;;;;;;5059787;28;20025;-61
2023/10/24 01:35:40;;;;;;;11.02;10.52;;;;;;;;;;5067970;28;20108;-62
2023/10/24 01:38:05;;;;;;;10.70;10.20;;;;;;;;;;5068425;28;20044;-61
2023/10/24 01:40:30;;;;;;;9.98;9.57;;;;;;;;;;5067873;28;20031;-61
2023/10/24 01:42:56;;;;;;;9.90;9.50;;;;;;;;;;5064153;28;20493;-62
2023/10/24 01:45:21;;;;;;;10.20;9.70;;;;;;;;;;5064908;28;20024;-61
2023/10/24 01:47:46;;;;;;;10.55;10.05;;;;;;;;;;5064155;28;20020;-62
2023/10/24 01:50:12;;;;;;;9.95;9.55;;;;;;;;;;5059211;28;20025;-62
2023/10/24 01:52:37;;;;;;;10.50;10.00;;;;;;;;;;5067184;28;20020;-62
2023/10/24 01:55:03;;;;;;;9.98;9.57;;;;;;;;;;5067924;28;20493;-61
2023/10/24 01:57:28;;;;;;;10.20;9.70;;;;;;;;;;5064280;28;20039;-62
2023/10/24 01:59:53;;;;;;;10.35;9.85;;;;;;;;;;5064271;28;20025;-62
2023/10/24 02:02:18;;;;;;;10.30;9.80;;;;;;;;;;5065759;28;20039;-62
2023/10/24 02:04:44;;;;;;;10.40;9.90;;;;;;;;;;5067513;28;20032;-62
2023/10/24 02:07:09;;;;;;;9.90;9.50;;;;;;;;;;5059582;28;20173;-62
2023/10/24 02:09:35;;;;;;;10.10;9.70;;;;;;;;;;5067348;28;20031;-61
2023/10/24 02:12:00;;;;;;;10.35;9.85;;;;;;;;;;5070061;28;20436;-62
2023/10/24 02:14:27;;;;;;;10.00;9.60;;;;;;;;;;5068808;28;20268;-63
2023/10/24 02:16:52;;;;;;;10.23;9.73;;;;;;;;;;5071862;28;20029;-63
2023/10/24 02:19:17;;;;;;;9.77;9.38;;;;;;;;;;5058268;28;20035;-62
2023/10/24 02:21:42;;;;;;;9.90;9.50;;;;;;;;;;5061243;28;20055;-61
2023/10/24 02:24:08;;;;;;;10.25;9.75;;;;;;;;;;5064256;28;20077;-62
2023/10/24 02:26:33;;;;;;;10.40;9.90;;;;;;;;;;5064320;28;20020;-62
2023/10/24 02:28:58;;;;;;;10.50;10.00;;;;;;;;;;5069318;28;20038;-62
2023/10/24 02:31:24;;;;;;;9.90;9.50;;;;;;;;;;5065598;28;20028;-62
2023/10/24 02:33:49;;;;;;;10.50;10.00;;;;;;;;;;5068713;28;20017;-63
2023/10/24 02:36:15;;;;;;;10.32;9.82;;;;;;;;;;5061886;28;20032;-63
2023/10/24 02:38:40;;;;;;;10.23;9.73;;;;;;;;;;5068760;28;20535;-62
2023/10/24 02:41:06;;;;;;;10.60;10.10;;;;;;;;;;5060125;28;20059;-62
2023/10/24 02:43:31;;;;;;;10.35;9.85;;;;;;;;;;5068993;28;20040;-63
2023/10/24 02:45:57;;;;;;;9.90;9.50;;;;;;;;;;5068359;28;20040;-63
2023/10/24 02:48:22;;;;;;;10.27;9.77;;;;;;;;;;5062879;28;20017;-61
2023/10/24 02:50:52;;;;;;;10.52;10.02;;;;;;;;;;5067105;28;20079;-63
2023/10/24 02:53:17;;;;;;;10.40;9.90;;;;;;;;;;5063380;28;20035;-62
2023/10/24 02:55:42;;;;;;;10.57;10.07;;;;;;;;;;5066265;28;20024;-61
2023/10/24 02:58:07;;;;;;;10.25;9.77;;;;;;;;;;5058551;28;20033;-62
2023/10/24 03:00:33;;;;;;;9.90;9.50;;;;;;;;;;5065689;28;20099;-62
2023/10/24 03:02:58;;;;;;;10.20;9.70;;;;;;;;;;5068276;28;20024;-62
2023/10/24 03:05:24;;;;;;;11.52;10.93;;;;;;;;;;5061165;28;20120;-62
2023/10/24 03:07:49;;;;;;;10.10;9.60;;;;;;;;;;5060520;28;20477;-62
2023/10/24 03:10:15;;;;;;;10.40;9.90;;;;;;;;;;5066796;28;20020;-62
2023/10/24 03:12:40;;;;;;;10.65;10.15;;;;;;;;;;5058686;28;21074;-63
2023/10/24 03:15:05;;;;;;;10.32;9.82;;;;;;;;;;5068691;28;20040;-62
2023/10/24 03:17:31;;;;;;;10.70;10.20;;;;;;;;;;5064639;28;20045;-61
2023/10/24 03:19:56;;;;;;;10.30;9.80;;;;;;;;;;5060918;28;20100;-61
2023/10/24 03:22:22;;;;;;;9.70;9.30;;;;;;;;;;5066329;28;20551;-63
2023/10/24 03:24:49;;;;;;;10.02;9.60;;;;;;;;;;5070002;28;20055;-64
2023/10/24 03:27:14;;;;;;;10.38;9.88;;;;;;;;;;5063542;28;20560;-62
2023/10/24 03:29:42;;;;;;;10.15;9.65;;;;;;;;;;5064944;28;20120;-62
2023/10/24 03:32:08;;;;;;;9.75;9.35;;;;;;;;;;5063198;28;20122;-63
2023/10/24 03:34:35;;;;;;;10.30;9.80;;;;;;;;;;5061721;28;20493;-62
2023/10/24 03:37:01;;;;;;;10.00;9.50;;;;;;;;;;5062173;28;20493;-62
2023/10/24 03:39:26;;;;;;;10.20;9.70;;;;;;;;;;5066049;28;20090;-62
2023/10/24 03:41:52;;;;;;;10.05;9.57;;;;;;;;;;5068918;28;20016;-62
2023/10/24 03:44:17;;;;;;;10.82;10.32;;;;;;;;;;5064081;28;20631;-62
2023/10/24 03:46:42;;;;;;;10.60;10.10;;;;;;;;;;5066317;28;20489;-62
2023/10/24 03:49:08;;;;;;;10.30;9.80;;;;;;;;;;5065995;28;20033;-61
2023/10/24 03:51:33;;;;;;;10.38;9.88;;;;;;;;;;5058830;28;20029;-60
2023/10/24 03:53:58;;;;;;;10.30;9.80;;;;;;;;;;5064426;28;20017;-61
2023/10/24 03:56:24;;;;;;;10.55;10.05;;;;;;;;;;5068848;28;20152;-61
2023/10/24 03:58:49;;;;;;;9.77;9.38;;;;;;;;;;5064148;28;20128;-61
2023/10/24 04:01:14;;;;;;;10.48;9.98;;;;;;;;;;5062974;28;20709;-61
2023/10/24 04:03:40;;;;;;;10.60;10.10;;;;;;;;;;5061728;28;20503;-61
2023/10/24 04:06:09;;;;;;;10.35;9.85;;;;;;;;;;5062508;28;20100;-61
2023/10/24 04:08:35;;;;;;;11.05;10.55;;;;;;;;;;5061446;28;20031;-61
2023/10/24 04:11:00;;;;;;;11.48;10.88;;;;;;;;;;5062144;28;20025;-62
2023/10/24 04:13:25;;;;;;;10.32;9.82;;;;;;;;;;5064289;28;20418;-61
2023/10/24 04:15:56;;;;;;;10.57;10.07;;;;;;;;;;5068068;28;20066;-63
2023/10/24 04:18:22;;;;;;;10.80;10.30;;;;;;;;;;5065313;28;20066;-62
2023/10/24 04:20:47;;;;;;;10.00;9.50;;;;;;;;;;5064859;28;20048;-61
2023/10/24 04:23:15;;;;;;;9.98;9.52;;;;;;;;;;5063126;28;20025;-62
2023/10/24 04:25:41;;;;;;;10.32;9.82;;;;;;;;;;5061449;28;20035;-60
2023/10/24 04:28:06;;;;;;;10.60;10.10;;;;;;;;;;5059736;28;20107;-62
2023/10/24 04:30:31;;;;;;;10.27;9.77;;;;;;;;;;5070651;28;20120;-60
2023/10/24 04:32:56;;;;;;;10.57;10.07;;;;;;;;;;5067055;28;20447;-62
2023/10/24 04:35:22;;;;;;;10.77;10.27;;;;;;;;;;5065398;28;20028;-63
2023/10/24 04:37:48;;;;;;;11.32;10.73;;;;;;;;;;5063131;28;20041;-62
2023/10/24 04:40:13;;;;;;;10.90;10.40;;;;;;;;;;5064969;28;20108;-63
2023/10/24 04:42:39;;;;;;;10.52;10.02;;;;;;;;;;5068901;28;20024;-61
2023/10/24 04:45:04;;;;;;;10.40;9.90;;;;;;;;;;5074156;28;20488;-62
2023/10/24 04:47:30;;;;;;;11.35;10.75;;;;;;;;;;5067977;28;20025;-61
2023/10/24 04:49:55;;;;;;;10.02;9.55;;;;;;;;;;5065701;28;20450;-62
2023/10/24 04:52:20;;;;;;;11.43;10.82;;;;;;;;;;5062910;28;20023;-62
2023/10/24 04:54:46;;;;;;;11.45;10.85;;;;;;;;;;5063766;28;20231;-62
2023/10/24 04:57:12;;;;;;;10.90;10.40;;;;;;;;;;5065535;28;20032;-62
2023/10/24 04:59:37;;;;;;;11.55;10.95;;;;;;;;;;5064701;28;20063;-62
2023/10/24 05:02:03;;;;;;;10.68;10.18;;;;;;;;;;5064861;28;20024;-62
2023/10/24 05:04:29;;;;;;;10.50;10.00;;;;;;;;;;5062968;28;20056;-62
2023/10/24 05:06:54;;;;;;;10.55;10.05;;;;;;;;;;5057781;28;20079;-61
2023/10/24 05:09:20;;;;;;;10.50;10.00;;;;;;;;;;5058774;28;20021;-62
2023/10/24 05:11:45;;;;;;;11.05;10.55;;;;;;;;;;5061884;28;20020;-60
2023/10/24 05:14:10;;;;;;;10.40;9.90;;;;;;;;;;5055750;28;20381;-62
2023/10/24 05:16:36;;;;;;;10.77;10.27;;;;;;;;;;5062219;28;20027;-62
2023/10/24 05:19:01;;;;;;;10.57;10.07;;;;;;;;;;5063248;28;20039;-62
2023/10/24 05:21:26;;;;;;;11.10;10.60;;;;;;;;;;5063638;28;20058;-63
2023/10/24 05:23:52;;;;;;;11.50;11.00;;;;;;;;;;5064130;28;20024;-62
2023/10/24 05:26:17;;;;;;;11.20;10.70;;;;;;;;;;5058655;28;20107;-61
2023/10/24 05:28:42;;;;;;;11.35;10.85;;;;;;;;;;5061121;28;20458;-61
2023/10/24 05:31:08;;;;;;;10.88;10.38;;;;;;;;;;5064881;28;20029;-61
2023/10/24 05:33:35;;;;;;;11.32;10.82;;;;;;;;;;5064067;28;20032;-61
2023/10/24 05:36:00;;;;;;;11.30;10.80;;;;;;;;;;5061939;28;20385;-62
2023/10/24 05:38:26;;;;;;;11.40;10.90;;;;;;;;;;5064018;28;20024;-61
2023/10/24 05:40:51;;;;;;;11.32;10.82;;;;;;;;;;5065260;28;20031;-62
2023/10/24 05:43:16;;;;;;;11.70;11.20;;;;;;;;;;5061567;28;20108;-63
2023/10/24 05:45:42;;;;;;;11.70;11.20;;;;;;;;;;5063851;28;20031;-62
2023/10/24 05:48:07;;;;;;;11.48;10.98;;;;;;;;;;5067320;28;20025;-62
2023/10/24 05:50:33;;;;;;;11.48;10.98;;;;;;;;;;5061197;28;20017;-61
2023/10/24 05:52:59;;;;;;;11.65;11.15;;;;;;;;;;5060370;28;20028;-61
2023/10/24 05:55:24;;;;;;;11.70;11.20;;;;;;;;;;5060388;28;20017;-68
2023/10/24 05:57:49;;;;;;;11.70;11.20;;;;;;;;;;5059072;28;20078;-63
2023/10/24 06:00:15;;;;;;;11.60;11.10;;;;;;;;;;5060794;28;20028;-65
2023/10/24 06:02:40;;;;;;;14.00;13.40;;;;;;;;;;5053071;28;20398;-64
2023/10/24 06:05:06;;;;;;;12.13;11.63;;;;;;;;;;5058696;28;20058;-66
2023/10/24 06:07:31;;;;;;;12.02;11.52;;;;;;;;;;5068284;28;20040;-65
2023/10/24 06:09:56;;;;;;;11.88;11.38;;;;;;;;;;5061435;28;20342;-66
2023/10/24 06:12:21;;;;;;;12.00;11.50;;;;;;;;;;5060405;28;20064;-66
2023/10/24 06:14:47;;;;;;;12.48;11.90;;;;;;;;;;5053024;28;20071;-66
2023/10/24 06:17:17;;;;;;;12.40;11.85;;;;;;;;;;5058827;28;20162;-66
2023/10/24 06:19:43;;;;;;;11.80;11.30;;;;;;;;;;5059518;28;20041;-66
2023/10/24 06:22:08;;;;;;;12.00;11.50;;;;;;;;;;5055337;28;20040;-66
2023/10/24 06:24:33;;;;;;;12.00;11.50;;;;;;;;;;5051530;28;20024;-66
2023/10/24 06:26:59;;;;;;;11.90;11.40;;;;;;;;;;5052803;28;20039;-65
2023/10/24 06:29:25;;;;;;;11.90;11.40;;;;;;;;;;5057611;28;20086;-66
2023/10/24 06:31:50;;;;;;;11.60;11.10;;;;;;;;;;5061772;28;20251;-66
2023/10/24 06:34:15;;;;;;;11.98;11.48;;;;;;;;;;5060799;28;20406;-66
2023/10/24 06:36:40;;;;;;;11.95;11.45;;;;;;;;;;5063880;28;20460;-66
2023/10/24 06:39:07;;;;;;;11.93;11.43;;;;;;;;;;5061226;28;20032;-65
2023/10/24 06:41:33;;;;;;;12.15;11.65;;;;;;;;;;5054905;28;20025;-65
2023/10/24 06:43:59;;;;;;;11.82;11.32;;;;;;;;;;5053184;28;20047;-67
2023/10/24 06:46:24;;;;;;;12.18;11.68;;;;;;;;;;5058501;28;20405;-65
2023/10/24 06:48:50;;;;;;;12.05;11.55;;;;;;;;;;5056669;28;20025;-65
2023/10/24 06:51:16;;;;;;;12.23;11.73;;;;;;;;;;5058890;28;20047;-65
2023/10/24 06:53:41;;;;;;;11.90;11.40;;;;;;;;;;5062960;28;20029;-65
2023/10/24 06:56:06;;;;;;;12.07;11.57;;;;;;;;;;5054250;28;20113;-64
2023/10/24 06:58:32;;;;;;;12.00;11.50;;;;;;;;;;5056452;28;20108;-64
2023/10/24 07:00:57;;;;;;;11.90;11.40;;;;;;;;;;5062694;28;20485;-65
2023/10/24 07:03:23;;;;;;;11.82;11.32;;;;;;;;;;5058751;28;20466;-66
2023/10/24 07:05:49;;;;;;;12.00;11.50;;;;;;;;;;5057626;28;20025;-65
2023/10/24 07:08:14;;;;;;;12.13;11.63;;;;;;;;;;5060294;28;20029;-65
2023/10/24 07:10:39;;;;;;;12.20;11.70;;;;;;;;;;5060672;28;20036;-65
2023/10/24 07:13:05;;;;;;;12.10;11.60;;;;;;;;;;5064519;28;20033;-66
2023/10/24 07:15:31;;;;;;;11.90;11.40;;;;;;;;;;5056916;28;20025;-65
2023/10/24 07:17:56;;;;;;;12.25;11.75;;;;;;;;;;5059431;28;20507;-66
2023/10/24 07:20:22;;;;;;;12.23;11.73;;;;;;;;;;5052854;28;20060;-65
2023/10/24 07:22:47;;;;;;;11.95;11.45;;;;;;;;;;5055113;28;20045;-66
2023/10/24 07:25:12;;;;;;;12.30;11.80;;;;;;;;;;5062964;28;20103;-66
2023/10/24 07:27:37;;;;;;;12.00;11.50;;;;;;;;;;5056091;28;20016;-65
2023/10/24 07:30:03;;;;;;;11.90;11.40;;;;;;;;;;5058406;28;20261;-65
2023/10/24 07:32:28;;;;;;;12.02;11.52;;;;;;;;;;5060245;28;20264;-65
2023/10/24 07:34:56;;;;;;;12.10;11.60;;;;;;;;;;5064949;28;20056;-66
2023/10/24 07:37:21;;;;;;;11.82;11.32;;;;;;;;;;5060179;28;20805;-65
2023/10/24 07:39:46;;;;;;;12.00;11.50;;;;;;;;;;5063350;28;20055;-66
2023/10/24 07:42:12;;;;;;;12.10;11.60;;;;;;;;;;5064333;28;20489;-66
2023/10/24 07:44:37;;;;;;;12.00;11.50;;;;;;;;;;5060594;28;20297;-67
2023/10/24 07:47:03;;;;;;;11.90;11.40;;;;;;;;;;5058763;28;20112;-65
2023/10/24 07:49:28;;;;;;;11.95;11.45;;;;;;;;;;5060137;28;20048;-65
2023/10/24 07:51:54;;;;;;;12.25;11.75;;;;;;;;;;5055060;28;20413;-65
2023/10/24 07:54:19;;;;;;;12.10;11.60;;;;;;;;;;5063713;28;20412;-66
2023/10/24 07:56:44;;;;;;;12.10;11.60;;;;;;;;;;5060801;28;20025;-65
2023/10/24 07:59:10;;;;;;;12.00;11.50;;;;;;;;;;5065047;28;20265;-66
2023/10/24 08:01:35;;;;;;;12.23;11.73;;;;;;;;;;5063072;28;20398;-65
2023/10/24 08:04:00;;;;;;;12.15;11.65;;;;;;;;;;5061809;28;20050;-66
2023/10/24 08:06:26;;;;;;;11.90;11.40;;;;;;;;;;5059191;28;20044;-67
2023/10/24 08:08:51;;;;;;;11.95;11.45;;;;;;;;;;5060850;28;20320;-67
2023/10/24 08:11:17;;;;;;;12.10;11.60;;;;;;;;;;5064438;28;20028;-66
2023/10/24 08:13:42;;;;;;;11.73;11.23;;;;;;;;;;5058565;28;20506;-65
2023/10/24 08:16:07;;;;;;;11.65;11.15;;;;;;;;;;5063190;28;20374;-65
2023/10/24 08:18:34;;;;;;;11.52;11.02;;;;;;;;;;5067279;28;20371;-65
2023/10/24 08:21:00;;;;;;;11.85;11.35;;;;;;;;;;5060295;28;20101;-65
2023/10/24 08:23:25;;;;;;;11.90;11.40;;;;;;;;;;5057531;28;20028;-66
2023/10/24 08:25:51;;;;;;;11.82;11.32;;;;;;;;;;5060985;28;20060;-65
2023/10/24 08:28:16;;;;;;;11.60;11.10;;;;;;;;;;5054563;28;20063;-65
2023/10/24 08:30:41;;;;;;;11.50;11.00;;;;;;;;;;5062142;28;20024;-65
2023/10/24 08:33:07;;;;;;;11.90;11.40;;;;;;;;;;5062257;28;20029;-67
2023/10/24 08:35:32;;;;;;;12.02;11.52;;;;;;;;;;5062347;28;20348;-66
2023/10/24 08:37:58;;;;;;;11.82;11.32;;;;;;;;;;5063461;28;20776;-66
2023/10/24 08:40:23;;;;;;;11.73;11.23;;;;;;;;;;5059893;28;20038;-65
2023/10/24 08:42:48;;;;;;;11.85;11.35;;;;;;;;;;5057818;28;20099;-65
2023/10/24 08:45:16;;;;;;;12.70;12.10;;;;;;;;;;5057203;28;20017;-65
2023/10/24 08:47:43;;;;;;;11.82;11.32;;;;;;;;;;5065296;28;20020;-65
2023/10/24 08:50:09;;;;;;;11.82;11.32;;;;;;;;;;5061340;28;20109;-66
2023/10/24 08:52:34;;;;;;;12.60;12.00;;;;;;;;;;5053486;28;20104;-65
2023/10/24 08:55:00;;;;;;;12.23;11.73;;;;;;;;;;5057298;28;20032;-66
2023/10/24 08:57:31;;;;;;;12.30;11.75;;;;;;;;;;5057293;28;20025;-66
2023/10/24 08:59:57;;;;;;;12.05;11.55;;;;;;;;;;5050718;28;20465;-66
2023/10/24 09:02:22;;;;;;;12.02;11.52;;;;;;;;;;5059983;28;20020;-65
2023/10/24 09:04:51;;;;;;;12.50;11.90;;;;;;;;;;5058819;28;20082;-65
2023/10/24 09:07:16;;;;;;;12.80;12.20;;;;;;;;;;5061244;28;20056;-65
2023/10/24 09:09:42;;;;;;;12.00;11.50;;;;;;;;;;5057032;28;20055;-64
2023/10/24 09:12:09;;;;;;;12.93;12.32;;;;;;;;;;5056509;28;20103;-65
2023/10/24 09:14:34;;;;;;;12.45;11.85;;;;;;;;;;5053294;28;20069;-65
2023/10/24 09:17:03;;;;;;;12.10;11.60;;;;;;;;;;5059004;28;20021;-66
2023/10/24 09:19:29;;;;;;;12.70;12.10;;;;;;;;;;5061234;28;20079;-67
2023/10/24 09:21:56;;;;;;;12.55;11.95;;;;;;;;;;5059501;28;20032;-67
2023/10/24 09:24:22;;;;;;;12.48;11.88;;;;;;;;;;5058788;28;20066;-67
2023/10/24 09:26:51;;;;;;;12.10;11.60;;;;;;;;;;5058922;28;20059;-65
2023/10/24 09:29:17;;;;;;;12.52;11.93;;;;;;;;;;5055522;28;20853;-66
2023/10/24 09:31:44;;;;;;;12.30;11.73;;;;;;;;;;5057518;28;20025;-63
2023/10/24 09:34:09;;;;;;;12.63;12.02;;;;;;;;;;5061698;28;20032;-64
2023/10/24 09:36:34;;;;;;;13.00;12.40;;;;;;;;;;5057374;28;20077;-65
2023/10/24 09:39:00;;;;;;;12.30;11.73;;;;;;;;;;5063014;28;20021;-64
2023/10/24 09:41:25;;;;;;;12.80;12.20;;;;;;;;;;5055532;28;20023;-65
2023/10/24 09:43:51;;;;;;;12.02;11.43;;;;;;;;;;5053271;28;20035;-65
2023/10/24 09:46:21;;;;;;;12.90;12.30;;;;;;;;;;5056371;28;20036;-66
2023/10/24 09:48:47;;;;;;;12.48;11.88;;;;;;;;;;5053658;28;20021;-64
2023/10/24 09:51:13;;;;;;;12.55;11.95;;;;;;;;;;5058535;28;20162;-64
2023/10/24 09:53:38;;;;;;;12.45;11.85;;;;;;;;;;5060512;28;20036;-65
2023/10/24 09:56:04;;;;;;;12.55;11.95;;;;;;;;;;5056416;28;20029;-64
2023/10/24 09:58:30;;;;;;;12.95;12.35;;;;;;;;;;5056231;28;20040;-65
2023/10/24 10:00:56;;;;;;;12.35;11.75;;;;;;;;;;5062097;28;20544;-64
2023/10/24 10:03:22;;;;;;;12.82;12.23;;;;;;;;;;5057626;28;20047;-66
2023/10/24 10:05:48;;;;;;;12.10;11.60;;;;;;;;;;5057445;28;20056;-65
2023/10/24 10:08:14;;;;;;;11.82;11.32;;;;;;;;;;5059585;28;20025;-66
2023/10/24 10:10:42;;;;;;;12.48;11.88;;;;;;;;;;5058628;28;20028;-65
2023/10/24 10:13:09;;;;;;;12.73;12.13;;;;;;;;;;5053868;28;20049;-64
2023/10/24 10:15:53;;;;;;;12.20;11.70;;;;;;;;;;5050538;28;20099;-64
2023/10/24 10:18:25;;;;;;;12.38;11.77;;;;;;;;;;5058786;28;20032;-65
2023/10/24 10:21:17;;;;;;;12.50;11.90;;;;;;;;;;5060051;28;20490;-65
2023/10/24 10:23:45;;;;;;;12.18;11.65;;;;;;;;;;5056831;28;20132;-65
2023/10/24 10:26:17;;;;;;;12.10;11.60;;;;;;;;;;5049467;28;20021;-65
2023/10/24 10:28:45;;;;;;;12.40;11.80;;;;;;;;;;5054977;28;20359;-65
2023/10/24 10:31:17;;;;;;;12.90;12.30;;;;;;;;;;5057881;28;20482;-64
2023/10/24 10:33:42;;;;;;;12.27;11.70;;;;;;;;;;5056073;28;20028;-65
2023/10/24 10:36:12;;;;;;;12.20;11.70;;;;;;;;;;5061883;28;20071;-64
2023/10/24 10:38:37;;;;;;;11.70;11.20;;;;;;;;;;5051581;28;20028;-64
2023/10/24 10:41:25;;;;;;;11.85;11.35;;;;;;;;;;5051264;28;20026;-65
2023/10/24 10:44:00;;;;;;;12.43;11.82;;;;;;;;;;5059166;28;20024;-66
2023/10/24 10:46:27;;;;;;;12.60;12.00;;;;;;;;;;5059302;28;20017;-65
2023/10/24 10:48:56;;;;;;;11.98;11.48;;;;;;;;;;5056738;28;20016;-65
2023/10/24 10:51:22;;;;;;;12.45;11.85;;;;;;;;;;5051849;28;20055;-65
2023/10/24 10:53:49;;;;;;;12.52;11.93;;;;;;;;;;5054249;28;20025;-65
2023/10/24 10:56:19;;;;;;;11.82;11.32;;;;;;;;;;5051497;28;20048;-65
2023/10/24 10:59:02;;;;;;;11.95;11.45;;;;;;;;;;5057241;28;20021;-65
2023/10/24 11:01:33;;;;;;;11.90;11.40;;;;;;;;;;5059720;28;20055;-65
2023/10/24 11:03:59;;;;;;;12.60;12.00;;;;;;;;;;5052479;28;20033;-64
2023/10/24 11:06:28;;;;;;;12.55;11.95;;;;;;;;;;5063849;28;20077;-65
2023/10/24 11:09:09;;;;;;;12.15;11.65;;;;;;;;;;5056925;28;20386;-64
2023/10/24 11:11:37;;;;;;;12.70;12.10;;;;;;;;;;5061783;28;20032;-66
2023/10/24 11:14:21;;;;;;;12.55;11.95;;;;;;;;;;5060855;28;20057;-65
2023/10/24 11:16:48;;;;;;;11.90;11.40;;;;;;;;;;5060001;28;20298;-64
2023/10/24 11:19:20;;;;;;;12.63;12.02;;;;;;;;;;5058768;28;20025;-67
2023/10/24 11:21:46;;;;;;;12.48;11.88;;;;;;;;;;5061121;28;20451;-64
2023/10/24 11:24:20;;;;;;;11.88;11.38;;;;;;;;;;5062083;28;20036;-65
2023/10/24 11:26:46;;;;;;;11.90;11.40;;;;;;;;;;5068457;28;20052;-65
2023/10/24 11:29:12;;;;;;;12.82;12.23;;;;;;;;;;5054361;28;20063;-65
2023/10/24 11:31:37;;;;;;;12.60;12.00;;;;;;;;;;5059329;28;20050;-65
2023/10/24 11:34:03;;;;;;;12.15;11.63;;;;;;;;;;5057990;28;20021;-65
2023/10/24 11:36:28;;;;;;;12.60;12.00;;;;;;;;;;5055859;28;20354;-65
2023/10/24 11:38:55;;;;;;;12.90;12.30;;;;;;;;;;5063282;28;20028;-65
2023/10/24 11:41:20;;;;;;;12.15;11.60;;;;;;;;;;5063373;28;20047;-65
2023/10/24 11:43:47;;;;;;;12.05;11.55;;;;;;;;;;5061185;28;20044;-65
2023/10/24 11:46:13;;;;;;;12.45;11.85;;;;;;;;;;5060470;28;20103;-64
2023/10/24 11:48:38;;;;;;;11.48;10.98;;;;;;;;;;5058983;28;20414;-64
2023/10/24 11:51:03;;;;;;;12.35;11.75;;;;;;;;;;5060602;28;20110;-64
2023/10/24 11:53:29;;;;;;;12.30;11.70;;;;;;;;;;5068512;28;20052;-64
2023/10/24 11:55:55;;;;;;;11.95;11.45;;;;;;;;;;5065532;28;20024;-65
2023/10/24 11:58:20;;;;;;;12.68;12.07;;;;;;;;;;5054924;28;20033;-66
2023/10/24 12:00:46;;;;;;;12.52;11.93;;;;;;;;;;5059354;28;20052;-65
2023/10/24 12:03:11;;;;;;;12.70;12.10;;;;;;;;;;5056631;28;20040;-66
2023/10/24 12:05:38;;;;;;;11.82;11.32;;;;;;;;;;5059990;28;20029;-65
2023/10/24 12:08:04;;;;;;;11.70;11.20;;;;;;;;;;5059705;28;20041;-65
2023/10/24 12:10:30;;;;;;;11.63;11.13;;;;;;;;;;5063434;28;20053;-65
2023/10/24 12:13:02;;;;;;;11.93;11.43;;;;;;;;;;5063738;28;20091;-65
2023/10/24 12:15:28;;;;;;;11.52;11.02;;;;;;;;;;5061462;28;20020;-64
2023/10/24 12:17:53;;;;;;;12.65;12.05;;;;;;;;;;5058316;28;20083;-64
2023/10/24 12:20:22;;;;;;;11.90;11.40;;;;;;;;;;5057362;28;20029;-65
2023/10/24 12:22:48;;;;;;;12.15;11.63;;;;;;;;;;5059702;28;20075;-64
2023/10/24 12:25:14;;;;;;;12.93;12.32;;;;;;;;;;5062786;28;20036;-64
2023/10/24 12:27:39;;;;;;;11.40;10.90;;;;;;;;;;5053762;28;20516;-64
2023/10/24 12:30:05;;;;;;;12.75;12.15;;;;;;;;;;5059063;28;20017;-65
2023/10/24 12:32:31;;;;;;;11.80;11.30;;;;;;;;;;5057981;28;20039;-65
2023/10/24 12:34:56;;;;;;;12.65;12.05;;;;;;;;;;5055152;28;20032;-65
2023/10/24 12:37:21;;;;;;;12.75;12.15;;;;;;;;;;5062333;28;20028;-65
2023/10/24 12:39:49;;;;;;;12.60;12.00;;;;;;;;;;5060487;28;20063;-66
2023/10/24 12:42:14;;;;;;;12.10;11.60;;;;;;;;;;5059510;28;20501;-64
2023/10/24 12:44:39;;;;;;;11.93;11.43;;;;;;;;;;5056605;28;20115;-65
2023/10/24 12:47:05;;;;;;;11.98;11.48;;;;;;;;;;5059760;28;20127;-67
2023/10/24 12:49:30;;;;;;;12.85;12.25;;;;;;;;;;5055225;28;20489;-66
2023/10/24 12:51:56;;;;;;;12.55;11.95;;;;;;;;;;5052473;28;20082;-65
2023/10/24 12:54:21;;;;;;;12.35;11.75;;;;;;;;;;5064490;28;20144;-66
2023/10/24 12:56:47;;;;;;;12.27;11.68;;;;;;;;;;5059688;28;20037;-67
2023/10/24 12:59:12;;;;;;;11.93;11.43;;;;;;;;;;5059308;28;20132;-64
2023/10/24 13:01:37;;;;;;;12.00;11.50;;;;;;;;;;5060642;28;20399;-65
2023/10/24 13:04:03;;;;;;;12.45;11.85;;;;;;;;;;5058310;28;20028;-64
2023/10/24 13:06:28;;;;;;;12.15;11.60;;;;;;;;;;5058484;28;20041;-66
2023/10/24 13:08:54;;;;;;;11.27;10.77;;;;;;;;;;5060926;28;20104;-65
2023/10/24 13:11:19;;;;;;;12.05;11.52;;;;;;;;;;5057597;28;20017;-65
2023/10/24 13:13:44;;;;;;;11.85;11.35;;;;;;;;;;5068105;28;20579;-66
2023/10/24 13:16:10;;;;;;;12.30;11.70;;;;;;;;;;5058184;28;20145;-64
2023/10/24 13:18:35;;;;;;;11.50;11.00;;;;;;;;;;5056996;28;20055;-64
2023/10/24 13:21:00;;;;;;;12.20;11.63;;;;;;;;;;5057785;28;20499;-65
2023/10/24 13:23:26;;;;;;;11.80;11.30;;;;;;;;;;5058100;28;20040;-64
2023/10/24 13:25:51;;;;;;;11.63;11.13;;;;;;;;;;5062302;28;20024;-65
2023/10/24 13:28:17;;;;;;;12.20;11.65;;;;;;;;;;5060748;28;20993;-66
2023/10/24 13:30:44;;;;;;;11.77;11.27;;;;;;;;;;5059651;28;20021;-65
2023/10/24 13:33:10;;;;;;;11.68;11.18;;;;;;;;;;5060511;28;20023;-65
2023/10/24 13:35:35;;;;;;;11.82;11.32;;;;;;;;;;5065491;28;20103;-66
2023/10/24 13:38:00;;;;;;;12.05;11.55;;;;;;;;;;5062227;28;20078;-65
2023/10/24 13:40:25;;;;;;;11.68;11.18;;;;;;;;;;5058170;28;20028;-65
2023/10/24 13:42:51;;;;;;;12.55;11.95;;;;;;;;;;5060255;28;20513;-65
2023/10/24 13:45:16;;;;;;;12.50;11.90;;;;;;;;;;5058052;28;20023;-66
2023/10/24 13:47:42;;;;;;;11.75;11.25;;;;;;;;;;5058081;28;20094;-64
2023/10/24 13:50:07;;;;;;;12.68;12.07;;;;;;;;;;5053064;28;20028;-66
2023/10/24 13:52:33;;;;;;;12.52;11.93;;;;;;;;;;5059421;28;20055;-66
2023/10/24 13:54:59;;;;;;;11.88;11.38;;;;;;;;;;5060408;28;20024;-65
2023/10/24 13:57:24;;;;;;;12.50;11.90;;;;;;;;;;5060909;28;20044;-66
2023/10/24 13:59:49;;;;;;;11.93;11.43;;;;;;;;;;5059303;28;20082;-64
2023/10/24 14:02:15;;;;;;;12.52;11.93;;;;;;;;;;5057826;28;20098;-66
2023/10/24 14:04:40;;;;;;;12.40;11.80;;;;;;;;;;5055704;28;20021;-68
2023/10/24 14:07:06;;;;;;;12.13;11.60;;;;;;;;;;5052532;28;20040;-66
2023/10/24 14:09:31;;;;;;;12.45;11.85;;;;;;;;;;5057636;28;20028;-65
2023/10/24 14:11:57;;;;;;;11.70;11.20;;;;;;;;;;5058758;28;20393;-67
2023/10/24 14:14:23;;;;;;;11.90;11.40;;;;;;;;;;5056500;28;20383;-66